Wetterdaten: Woche 14.08.23 - 20.08.23 (KW33)
Datum Zeit Temp. Aussen Temp. o. S. Temp +5cm Feuchte Auss Luftdruck Regen Sonnenschein Regendauer Solar Windben Empfang
14.08.2023 00:00 17,4 C 15,8 C 12,7 C 90 % 1016,6 hPa 0,0 l/m 0,00 h 0,00 h 0 W/m 0,0 km/h (0 Bft) 96,93 %
14.08.2023 01:00 16,6 C 15,2 C 12,1 C 93 % 1016,5 hPa 0,0 l/m 0,00 h 0,00 h 0 W/m 0,0 km/h (0 Bft) 99,85 %
14.08.2023 02:00 16,0 C 14,7 C 11,7 C 94 % 1016,5 hPa 0,0 l/m 0,00 h 0,00 h 0 W/m 0,0 km/h (0 Bft) 98,83 %
14.08.2023 03:00 15,5 C 14,2 C 11,1 C 95 % 1016,3 hPa 0,0 l/m 0,00 h 0,00 h 0 W/m 0,0 km/h (0 Bft) 96,86 %
14.08.2023 04:00 15,1 C 13,9 C 11,1 C 95 % 1015,7 hPa 0,0 l/m 0,00 h 0,00 h 0 W/m 0,0 km/h (0 Bft) 97,59 %
14.08.2023 05:00 14,7 C 13,5 C 10,6 C 96 % 1015,6 hPa 0,0 l/m 0,00 h 0,00 h 0 W/m 0,0 km/h (0 Bft) 99,93 %
14.08.2023 06:00 14,7 C 13,9 C 11,0 C 97 % 1015,5 hPa 0,0 l/m 0,00 h 0,00 h 9 W/m 0,0 km/h (0 Bft) 98,90 %
14.08.2023 07:00 15,0 C 14,8 C 11,6 C 97 % 1015,3 hPa 0,0 l/m 0,00 h 0,00 h 50 W/m 2,4 km/h (1 Bft) 97,59 %
14.08.2023 08:00 16,0 C 16,7 C 13,1 C 97 % 1015,5 hPa 0,0 l/m 0,08 h 0,00 h 125 W/m 5,6 km/h (1 Bft) 99,93 %
14.08.2023 09:00 17,2 C 18,0 C 14,1 C 95 % 1015,3 hPa 0,0 l/m 0,07 h 0,00 h 154 W/m 2,3 km/h (1 Bft) 97,13 %
14.08.2023 10:00 19,4 C 21,8 C 15,7 C 87 % 1015,4 hPa 0,0 l/m 0,92 h 0,00 h 528 W/m 6,6 km/h (2 Bft) 97,29 %
14.08.2023 11:00 22,4 C 25,1 C 18,2 C 74 % 1015,2 hPa 0,0 l/m 0,92 h 0,00 h 732 W/m 9,2 km/h (2 Bft) 98,99 %
14.08.2023 12:00 25,2 C 29,9 C 21,9 C 63 % 1014,8 hPa 0,0 l/m 0,98 h 0,00 h 773 W/m 10,9 km/h (2 Bft) 94,93 %
14.08.2023 13:00 26,0 C 26,9 C 20,4 C 62 % 1014,6 hPa 0,0 l/m 1,00 h 0,00 h 777 W/m 10,5 km/h (2 Bft) 98,45 %
14.08.2023 14:00 27,4 C 33,3 C 21,6 C 60 % 1014,1 hPa 0,0 l/m 0,93 h 0,00 h 755 W/m 12,0 km/h (2 Bft) 97,65 %
14.08.2023 15:00 28,3 C 31,9 C 22,0 C 60 % 1013,0 hPa 0,0 l/m 0,93 h 0,00 h 685 W/m 8,4 km/h (2 Bft) 95,95 %
14.08.2023 16:00 28,2 C 29,1 C 22,4 C 63 % 1012,6 hPa 0,0 l/m 0,90 h 0,00 h 545 W/m 7,6 km/h (2 Bft) 98,51 %
14.08.2023 17:00 27,9 C 28,8 C 22,6 C 67 % 1012,8 hPa 0,0 l/m 0,70 h 0,00 h 375 W/m 14,7 km/h (3 Bft) 98,79 %
14.08.2023 18:00 27,1 C 27,6 C 22,0 C 72 % 1012,7 hPa 0,0 l/m 0,67 h 0,00 h 238 W/m 14,2 km/h (3 Bft) 95,44 %
14.08.2023 19:00 26,3 C 25,2 C 21,0 C 76 % 1012,6 hPa 0,0 l/m 0,07 h 0,00 h 72 W/m 8,9 km/h (2 Bft) 98,63 %
14.08.2023 20:00 25,5 C 24,4 C 20,3 C 79 % 1012,6 hPa 0,0 l/m 0,37 h 0,00 h 27 W/m 3,9 km/h (1 Bft) 97,08 %
14.08.2023 21:00 25,2 C 23,9 C 19,7 C 81 % 1013,0 hPa 0,0 l/m 0,00 h 0,00 h 0 W/m 3,4 km/h (1 Bft) 97,65 %
14.08.2023 22:00 24,1 C 22,7 C 18,8 C 83 % 1013,2 hPa 0,0 l/m 0,00 h 0,00 h 0 W/m 4,4 km/h (1 Bft) 98,24 %
14.08.2023 23:00 23,0 C 21,6 C 17,9 C 86 % 1013,4 hPa 0,0 l/m 0,00 h 0,00 h 0 W/m 3,4 km/h (1 Bft) 97,07 %
15.08.2023 07:00 18,8 C 18,0 C 13,9 C 96 % 1015,0 hPa 0,0 l/m 0,00 h 0,00 h 26 W/m 1,1 km/h (0 Bft) 95,78 %
15.08.2023 08:00 18,9 C 18,6 C 14,1 C 96 % 1015,3 hPa 0,0 l/m 0,00 h 0,00 h 66 W/m 0,4 km/h (0 Bft) 98,22 %
15.08.2023 09:00 20,0 C 22,1 C 14,7 C 93 % 1015,6 hPa 0,0 l/m 0,53 h 0,00 h 333 W/m 5,5 km/h (1 Bft) 96,82 %
15.08.2023 10:00 21,9 C 23,0 C 15,5 C 84 % 1015,9 hPa 0,0 l/m 1,03 h 0,00 h 498 W/m 5,3 km/h (1 Bft) 97,91 %
15.08.2023 11:00 23,5 C 25,7 C 19,4 C 78 % 1016,2 hPa 0,0 l/m 1,00 h 0,00 h 697 W/m 8,3 km/h (2 Bft) 97,80 %
15.08.2023 12:00 24,7 C 26,2 C 20,8 C 73 % 1016,6 hPa 0,0 l/m 0,30 h 0,00 h 394 W/m 6,9 km/h (2 Bft) 97,15 %
15.08.2023 13:00 24,7 C 24,3 C 19,9 C 74 % 1016,6 hPa 0,0 l/m 0,00 h 0,00 h 191 W/m 2,0 km/h (1 Bft) 96,73 %
15.08.2023 14:00 24,9 C 25,5 C 20,3 C 74 % 1016,8 hPa 0,0 l/m 0,13 h 0,00 h 282 W/m 7,6 km/h (2 Bft) 99,57 %
15.08.2023 15:00 25,9 C 27,1 C 21,4 C 70 % 1016,6 hPa 0,0 l/m 0,87 h 0,00 h 449 W/m 9,1 km/h (2 Bft) 95,59 %
15.08.2023 16:00 26,9 C 27,7 C 21,8 C 67 % 1016,5 hPa 0,0 l/m 0,87 h 0,00 h 542 W/m 7,1 km/h (2 Bft) 98,64 %
15.08.2023 17:00 27,8 C 31,1 C 22,4 C 65 % 1016,4 hPa 0,0 l/m 0,93 h 0,00 h 490 W/m 8,3 km/h (2 Bft) 98,66 %
15.08.2023 18:00 27,4 C 29,5 C 22,4 C 65 % 1016,7 hPa 0,0 l/m 0,83 h 0,00 h 318 W/m 7,1 km/h (2 Bft) 95,58 %
15.08.2023 19:00 26,3 C 25,2 C 20,9 C 65 % 1016,8 hPa 0,0 l/m 0,13 h 0,00 h 60 W/m 4,7 km/h (1 Bft) 98,28 %
15.08.2023 20:00 25,0 C 23,0 C 19,0 C 72 % 1017,2 hPa 0,0 l/m 0,00 h 0,00 h 16 W/m 2,0 km/h (1 Bft) 98,72 %
15.08.2023 21:00 23,2 C 22,2 C 18,2 C 79 % 1018,2 hPa 0,0 l/m 0,00 h 0,00 h 5 W/m 7,9 km/h (2 Bft) 96,37 %
15.08.2023 22:00 22,3 C 21,3 C 17,5 C 81 % 1018,6 hPa 0,0 l/m 0,00 h 0,00 h 0 W/m 7,0 km/h (2 Bft) 97,58 %
15.08.2023 23:00 21,7 C 20,6 C 17,0 C 82 % 1018,9 hPa 0,0 l/m 0,00 h 0,00 h 0 W/m 5,3 km/h (1 Bft) 98,57 %
16.08.2023 00:00 20,9 C 19,7 C 16,3 C 86 % 1019,1 hPa 0,0 l/m 0,00 h 0,00 h 0 W/m 4,3 km/h (1 Bft) 95,47 %
16.08.2023 01:00 20,2 C 19,1 C 15,8 C 88 % 1019,4 hPa 0,0 l/m 0,00 h 0,00 h 0 W/m 3,8 km/h (1 Bft) 98,99 %
16.08.2023 02:00 19,5 C 18,6 C 15,2 C 88 % 1019,1 hPa 0,0 l/m 0,00 h 0,00 h 0 W/m 4,4 km/h (1 Bft) 97,30 %
16.08.2023 03:00 19,0 C 18,2 C 14,7 C 90 % 1019,1 hPa 0,0 l/m 0,00 h 0,00 h 0 W/m 3,5 km/h (1 Bft) 97,06 %
16.08.2023 04:00 18,9 C 17,9 C 14,5 C 91 % 1019,0 hPa 0,0 l/m 0,00 h 0,00 h 0 W/m 1,4 km/h (1 Bft) 98,51 %
16.08.2023 05:00 18,5 C 17,8 C 14,4 C 91 % 1019,4 hPa 0,0 l/m 0,00 h 0,00 h 0 W/m 7,8 km/h (2 Bft) 97,74 %
16.08.2023 06:00 18,3 C 17,8 C 14,4 C 91 % 1019,7 hPa 0,0 l/m 0,00 h 0,00 h 7 W/m 5,3 km/h (1 Bft) 96,35 %
16.08.2023 07:00 18,7 C 18,2 C 14,8 C 91 % 1019,7 hPa 0,0 l/m 0,00 h 0,00 h 28 W/m 6,5 km/h (2 Bft) 99,22 %
16.08.2023 08:00 19,4 C 19,2 C 15,5 C 90 % 1020,0 hPa 0,0 l/m 0,00 h 0,00 h 94 W/m 8,3 km/h (2 Bft) 96,51 %
16.08.2023 09:00 20,8 C 22,4 C 17,1 C 87 % 1020,2 hPa 0,0 l/m 0,63 h 0,00 h 272 W/m 10,9 km/h (2 Bft) 97,50 %
16.08.2023 10:00 21,1 C 20,9 C 17,0 C 87 % 1020,7 hPa 0,0 l/m 0,03 h 0,00 h 161 W/m 7,8 km/h (2 Bft) 98,74 %
16.08.2023 11:00 22,1 C 22,9 C 18,6 C 84 % 1020,7 hPa 0,0 l/m 0,37 h 0,00 h 322 W/m 8,7 km/h (2 Bft) 97,52 %
16.08.2023 12:00 22,2 C 22,0 C 17,9 C 83 % 1020,6 hPa 0,0 l/m 0,00 h 0,00 h 146 W/m 8,4 km/h (2 Bft) 97,13 %
16.08.2023 13:00 21,9 C 22,6 C 18,0 C 85 % 1020,6 hPa 0,0 l/m 0,33 h 0,00 h 330 W/m 10,2 km/h (2 Bft) 98,01 %
16.08.2023 14:00 23,8 C 26,6 C 19,9 C 81 % 1020,3 hPa 0,0 l/m 0,90 h 0,00 h 592 W/m 14,2 km/h (3 Bft) 98,07 %
16.08.2023 15:00 23,7 C 24,2 C 19,4 C 81 % 1020,1 hPa 0,0 l/m 0,43 h 0,00 h 344 W/m 12,5 km/h (3 Bft) 97,94 %
16.08.2023 16:00 23,6 C 24,0 C 19,4 C 81 % 1019,9 hPa 0,0 l/m 0,33 h 0,00 h 293 W/m 11,0 km/h (2 Bft) 96,94 %
16.08.2023 17:00 23,7 C 24,0 C 19,5 C 81 % 1019,7 hPa 0,0 l/m 0,33 h 0,00 h 240 W/m 11,3 km/h (2 Bft) 99,64 %
16.08.2023 18:00 23,2 C 22,9 C 19,0 C 82 % 1019,3 hPa 0,0 l/m 0,00 h 0,00 h 123 W/m 9,1 km/h (2 Bft) 96,53 %
16.08.2023 19:00 22,9 C 22,3 C 18,2 C 83 % 1019,3 hPa 0,0 l/m 0,00 h 0,00 h 57 W/m 9,0 km/h (2 Bft) 97,60 %
16.08.2023 20:00 22,0 C 21,2 C 17,4 C 84 % 1019,3 hPa 0,0 l/m 0,00 h 0,00 h 13 W/m 10,0 km/h (2 Bft) 98,08 %
16.08.2023 21:00 21,4 C 20,6 C 16,8 C 85 % 1019,2 hPa 0,0 l/m 0,00 h 0,00 h 3 W/m 8,4 km/h (2 Bft) 96,16 %
16.08.2023 22:00 21,0 C 20,0 C 16,7 C 87 % 1019,1 hPa 0,0 l/m 0,00 h 0,00 h 0 W/m 10,8 km/h (2 Bft) 97,98 %
16.08.2023 23:00 20,6 C 19,7 C 15,8 C 88 % 1019,2 hPa 3,2 l/m 0,00 h 0,33 h 0 W/m 7,3 km/h (2 Bft) 98,86 %
17.08.2023 00:00 18,8 C 17,1 C 13,4 C 94 % 1019,2 hPa 4,4 l/m 0,00 h 0,87 h 0 W/m 6,8 km/h (2 Bft) 95,64 %
17.08.2023 01:00 18,0 C 16,7 C 13,3 C 97 % 1019,4 hPa 7,6 l/m 0,00 h 1,00 h 0 W/m 6,6 km/h (2 Bft) 97,35 %
17.08.2023 02:00 17,4 C 16,2 C 12,9 C 98 % 1019,2 hPa 8,0 l/m 0,00 h 0,70 h 0 W/m 10,3 km/h (2 Bft) 98,89 %
17.08.2023 03:00 17,1 C 16,1 C 12,8 C 98 % 1019,1 hPa 0,0 l/m 0,00 h 0,00 h 0 W/m 10,2 km/h (2 Bft) 94,99 %
17.08.2023 04:00 16,9 C 16,1 C 12,8 C 99 % 1018,9 hPa 0,0 l/m 0,00 h 0,00 h 0 W/m 5,1 km/h (1 Bft) 99,62 %
17.08.2023 05:00 16,8 C 15,8 C 12,5 C 99 % 1018,8 hPa 0,0 l/m 0,00 h 0,00 h 0 W/m 6,2 km/h (2 Bft) 97,43 %
17.08.2023 06:00 16,4 C 15,6 C 12,2 C 98 % 1019,0 hPa 0,0 l/m 0,00 h 0,00 h 10 W/m 6,8 km/h (2 Bft) 97,33 %
17.08.2023 07:00 16,6 C 15,9 C 12,2 C 98 % 1019,2 hPa 0,0 l/m 0,00 h 0,00 h 29 W/m 6,3 km/h (2 Bft) 98,36 %
17.08.2023 08:00 16,8 C 16,2 C 12,8 C 98 % 1019,3 hPa 0,0 l/m 0,00 h 0,00 h 55 W/m 6,2 km/h (2 Bft) 97,58 %
17.08.2023 09:00 17,2 C 16,9 C 13,2 C 97 % 1019,5 hPa 0,0 l/m 0,00 h 0,00 h 91 W/m 5,6 km/h (1 Bft) 96,84 %
17.08.2023 10:00 17,7 C 17,7 C 14,0 C 96 % 1019,7 hPa 0,0 l/m 0,00 h 0,00 h 126 W/m 7,4 km/h (2 Bft) 99,66 %
17.08.2023 11:00 18,1 C 18,2 C 14,6 C 95 % 1019,6 hPa 0,0 l/m 0,00 h 0,00 h 151 W/m 7,1 km/h (2 Bft) 95,74 %
17.08.2023 12:00 18,8 C 19,0 C 15,3 C 94 % 1019,3 hPa 0,0 l/m 0,00 h 0,00 h 163 W/m 7,9 km/h (2 Bft) 98,67 %
17.08.2023 13:00 19,1 C 19,3 C 15,7 C 92 % 1019,5 hPa 0,0 l/m 0,00 h 0,00 h 181 W/m 6,7 km/h (2 Bft) 98,35 %
17.08.2023 14:00 20,0 C 20,3 C 16,3 C 91 % 1019,4 hPa 0,0 l/m 0,00 h 0,00 h 203 W/m 3,7 km/h (1 Bft) 95,48 %
17.08.2023 15:00 20,8 C 21,1 C 16,7 C 89 % 1019,3 hPa 0,0 l/m 0,00 h 0,00 h 137 W/m 4,1 km/h (1 Bft) 97,44 %
17.08.2023 16:00 21,2 C 21,5 C 16,9 C 88 % 1018,9 hPa 0,0 l/m 0,07 h 0,00 h 195 W/m 5,2 km/h (1 Bft) 99,22 %
17.08.2023 17:00 21,3 C 21,1 C 17,2 C 87 % 1018,5 hPa 0,0 l/m 0,00 h 0,00 h 150 W/m 8,0 km/h (2 Bft) 95,75 %
17.08.2023 18:00 21,2 C 21,3 C 17,0 C 87 % 1017,8 hPa 0,0 l/m 0,20 h 0,00 h 148 W/m 11,0 km/h (2 Bft) 99,42 %
17.08.2023 19:00 20,6 C 20,1 C 16,4 C 88 % 1017,9 hPa 0,0 l/m 0,00 h 0,00 h 58 W/m 9,5 km/h (2 Bft) 96,95 %
17.08.2023 20:00 20,1 C 19,2 C 15,7 C 91 % 1018,2 hPa 0,0 l/m 0,00 h 0,00 h 10 W/m 5,4 km/h (1 Bft) 97,72 %
17.08.2023 21:00 19,5 C 18,4 C 15,0 C 93 % 1018,5 hPa 0,0 l/m 0,00 h 0,00 h 0 W/m 2,1 km/h (1 Bft) 97,58 %
17.08.2023 22:00 18,8 C 17,5 C 14,1 C 94 % 1018,5 hPa 0,0 l/m 0,00 h 0,00 h 0 W/m 0,9 km/h (0 Bft) 97,17 %
17.08.2023 23:00 18,4 C 17,3 C 14,1 C 96 % 1018,4 hPa 0,0 l/m 0,00 h 0,00 h 0 W/m 2,0 km/h (1 Bft) 96,83 %
18.08.2023 00:00 18,3 C 17,4 C 14,1 C 97 % 1018,1 hPa 0,0 l/m 0,00 h 0,00 h 0 W/m 7,7 km/h (2 Bft) 99,08 %
18.08.2023 01:00 18,0 C 16,9 C 13,9 C 97 % 1017,8 hPa 0,0 l/m 0,00 h 0,00 h 0 W/m 4,8 km/h (1 Bft) 96,83 %
18.08.2023 02:00 17,5 C 16,5 C 13,3 C 97 % 1017,5 hPa 0,0 l/m 0,00 h 0,00 h 0 W/m 2,7 km/h (1 Bft) 96,75 %
18.08.2023 03:00 17,3 C 16,7 C 13,3 C 98 % 1017,2 hPa 0,0 l/m 0,00 h 0,00 h 0 W/m 4,2 km/h (1 Bft) 98,92 %
18.08.2023 04:00 17,4 C 16,7 C 13,7 C 98 % 1016,9 hPa 0,0 l/m 0,00 h 0,00 h 0 W/m 6,9 km/h (2 Bft) 95,88 %
18.08.2023 05:00 17,3 C 16,7 C 13,3 C 98 % 1016,8 hPa 0,0 l/m 0,00 h 0,00 h 0 W/m 8,3 km/h (2 Bft) 98,50 %
18.08.2023 06:00 17,3 C 16,7 C 13,3 C 98 % 1016,8 hPa 0,0 l/m 0,00 h 0,00 h 7 W/m 8,1 km/h (2 Bft) 98,23 %
18.08.2023 07:00 17,6 C 16,9 C 13,9 C 99 % 1016,7 hPa 0,0 l/m 0,00 h 0,00 h 25 W/m 4,8 km/h (1 Bft) 96,59 %
18.08.2023 08:00 17,8 C 17,6 C 14,3 C 99 % 1016,8 hPa 0,0 l/m 0,00 h 0,00 h 62 W/m 6,2 km/h (2 Bft) 97,85 %
18.08.2023 09:00 18,1 C 18,2 C 14,8 C 99 % 1016,8 hPa 0,0 l/m 0,00 h 0,00 h 116 W/m 6,9 km/h (2 Bft) 98,65 %
18.08.2023 10:00 18,9 C 19,8 C 16,0 C 98 % 1017,0 hPa 0,0 l/m 0,00 h 0,00 h 196 W/m 6,2 km/h (2 Bft) 95,84 %
18.08.2023 11:00 20,3 C 21,5 C 17,3 C 95 % 1016,8 hPa 0,0 l/m 0,13 h 0,00 h 283 W/m 5,3 km/h (1 Bft) 99,22 %
18.08.2023 12:00 22,9 C 27,7 C 20,1 C 89 % 1016,5 hPa 0,0 l/m 0,97 h 0,00 h 758 W/m 5,7 km/h (1 Bft) 96,54 %
18.08.2023 13:00 24,8 C 26,6 C 20,5 C 84 % 1015,9 hPa 0,0 l/m 0,93 h 0,00 h 691 W/m 6,5 km/h (2 Bft) 98,72 %
18.08.2023 14:00 26,6 C 33,9 C 21,1 C 79 % 1015,2 hPa 0,0 l/m 1,00 h 0,00 h 778 W/m 7,8 km/h (2 Bft) 97,08 %
18.08.2023 15:00 27,7 C 31,3 C 22,2 C 77 % 1015,1 hPa 0,0 l/m 1,00 h 0,00 h 696 W/m 7,3 km/h (2 Bft) 98,23 %
18.08.2023 16:00 28,7 C 30,1 C 23,1 C 76 % 1014,7 hPa 0,0 l/m 1,00 h 0,00 h 594 W/m 6,0 km/h (2 Bft) 97,45 %
18.08.2023 17:00 29,5 C 31,6 C 24,1 C 74 % 1014,4 hPa 0,0 l/m 0,88 h 0,00 h 410 W/m 6,0 km/h (2 Bft) 96,75 %
18.08.2023 18:00 28,9 C 29,2 C 23,4 C 76 % 1013,9 hPa 0,0 l/m 0,53 h 0,00 h 186 W/m 4,8 km/h (1 Bft) 97,62 %
18.08.2023 19:00 28,0 C 26,9 C 22,5 C 79 % 1013,7 hPa 0,0 l/m 0,10 h 0,00 h 74 W/m 2,3 km/h (1 Bft) 96,99 %
18.08.2023 20:00 26,8 C 25,6 C 21,4 C 83 % 1013,6 hPa 0,0 l/m 0,30 h 0,00 h 27 W/m 0,0 km/h (0 Bft) 95,67 %
18.08.2023 21:00 25,5 C 23,9 C 19,9 C 87 % 1013,6 hPa 0,0 l/m 0,00 h 0,00 h 0 W/m 0,0 km/h (0 Bft) 97,67 %
18.08.2023 22:00 24,5 C 23,2 C 18,9 C 90 % 1013,8 hPa 0,0 l/m 0,00 h 0,00 h 0 W/m 0,0 km/h (0 Bft) 98,64 %
18.08.2023 23:00 23,8 C 22,8 C 18,5 C 93 % 1013,7 hPa 0,0 l/m 0,00 h 0,00 h 0 W/m 0,0 km/h (0 Bft) 94,64 %
19.08.2023 00:00 23,3 C 22,2 C 18,3 C 94 % 1013,6 hPa 0,0 l/m 0,00 h 0,00 h 0 W/m 0,0 km/h (0 Bft) 99,70 %
19.08.2023 01:00 22,9 C 22,6 C 18,6 C 93 % 1013,3 hPa 0,0 l/m 0,00 h 0,00 h 0 W/m 0,0 km/h (0 Bft) 97,65 %
19.08.2023 02:00 23,2 C 22,7 C 18,8 C 90 % 1013,1 hPa 0,0 l/m 0,00 h 0,00 h 0 W/m 0,0 km/h (0 Bft) 96,50 %
19.08.2023 03:00 23,0 C 22,0 C 18,2 C 88 % 1012,9 hPa 0,0 l/m 0,00 h 0,00 h 0 W/m 0,0 km/h (0 Bft) 98,71 %
19.08.2023 04:00 22,5 C 21,7 C 17,8 C 87 % 1012,7 hPa 0,0 l/m 0,00 h 0,00 h 0 W/m 0,0 km/h (0 Bft) 97,55 %
19.08.2023 05:00 22,4 C 21,7 C 17,8 C 87 % 1012,5 hPa 0,0 l/m 0,00 h 0,00 h 0 W/m 0,0 km/h (0 Bft) 97,75 %
19.08.2023 06:00 22,4 C 21,7 C 17,9 C 87 % 1012,5 hPa 0,0 l/m 0,00 h 0,00 h 11 W/m 2,5 km/h (1 Bft) 99,39 %
19.08.2023 07:00 22,7 C 22,1 C 18,3 C 85 % 1012,6 hPa 0,0 l/m 0,00 h 0,00 h 36 W/m 7,3 km/h (2 Bft) 96,86 %
19.08.2023 08:00 23,2 C 22,7 C 18,8 C 84 % 1013,1 hPa 0,0 l/m 0,00 h 0,00 h 81 W/m 9,6 km/h (2 Bft) 97,69 %
19.08.2023 09:00 24,0 C 23,8 C 19,3 C 83 % 1013,3 hPa 0,0 l/m 0,03 h 0,10 h 167 W/m 8,6 km/h (2 Bft) 98,40 %
19.08.2023 10:00 25,3 C 25,3 C 21,0 C 80 % 1013,8 hPa 0,0 l/m 0,17 h 0,00 h 226 W/m 10,1 km/h (2 Bft) 97,89 %
19.08.2023 11:00 27,0 C 27,3 C 22,4 C 78 % 1014,4 hPa 0,0 l/m 0,02 h 0,17 h 285 W/m 8,9 km/h (2 Bft) 97,12 %
19.08.2023 12:00 28,0 C 28,3 C 23,1 C 77 % 1014,8 hPa 0,0 l/m 0,20 h 0,13 h 307 W/m 8,8 km/h (2 Bft) 97,07 %
19.08.2023 13:00 27,5 C 26,7 C 22,6 C 81 % 1015,7 hPa 0,0 l/m 0,00 h 0,30 h 214 W/m 10,3 km/h (2 Bft) 98,64 %
19.08.2023 14:00 26,8 C 26,6 C 22,4 C 84 % 1017,3 hPa 0,0 l/m 0,03 h 0,03 h 227 W/m 14,0 km/h (3 Bft) 97,08 %
19.08.2023 15:00 25,9 C 24,7 C 20,4 C 88 % 1018,4 hPa 0,0 l/m 0,00 h 0,63 h 79 W/m 7,8 km/h (2 Bft) 97,17 %
19.08.2023 16:00 24,2 C 23,3 C 18,3 C 91 % 1018,3 hPa 0,4 l/m 0,00 h 0,50 h 93 W/m 1,7 km/h (1 Bft) 98,52 %
19.08.2023 17:00 24,6 C 26,4 C 20,1 C 87 % 1018,4 hPa 0,0 l/m 0,53 h 0,03 h 316 W/m 7,3 km/h (2 Bft) 96,52 %
19.08.2023 18:00 26,3 C 29,0 C 21,6 C 79 % 1018,5 hPa 0,0 l/m 0,93 h 0,00 h 303 W/m 7,2 km/h (2 Bft) 97,57 %
19.08.2023 19:00 25,8 C 24,6 C 20,5 C 79 % 1018,8 hPa 0,0 l/m 0,00 h 0,00 h 37 W/m 4,5 km/h (1 Bft) 99,14 %
19.08.2023 20:00 24,6 C 23,0 C 19,1 C 84 % 1019,2 hPa 0,0 l/m 0,00 h 0,00 h 16 W/m 1,7 km/h (1 Bft) 95,70 %
19.08.2023 21:00 23,1 C 21,0 C 17,5 C 88 % 1019,7 hPa 0,0 l/m 0,00 h 0,00 h 0 W/m 1,5 km/h (1 Bft) 98,48 %
19.08.2023 22:00 21,6 C 20,3 C 17,0 C 92 % 1020,1 hPa 0,0 l/m 0,00 h 0,00 h 0 W/m 3,0 km/h (1 Bft) 98,58 %
19.08.2023 23:00 20,6 C 19,1 C 16,0 C 92 % 1020,5 hPa 0,0 l/m 0,00 h 0,00 h 0 W/m 0,0 km/h (0 Bft) 96,31 %
20.08.2023 00:00 19,7 C 18,2 C 15,3 C 93 % 1020,9 hPa 0,0 l/m 0,00 h 0,00 h 0 W/m 0,0 km/h (0 Bft) 98,42 %
20.08.2023 01:00 19,1 C 17,8 C 14,8 C 95 % 1020,9 hPa 0,0 l/m 0,00 h 0,00 h 0 W/m 0,0 km/h (0 Bft) 98,86 %
20.08.2023 02:00 18,7 C 17,4 C 14,4 C 96 % 1020,8 hPa 0,0 l/m 0,00 h 0,00 h 0 W/m 0,0 km/h (0 Bft) 95,48 %
20.08.2023 03:00 18,3 C 17,2 C 14,3 C 96 % 1020,9 hPa 0,0 l/m 0,00 h 0,00 h 0 W/m 0,0 km/h (0 Bft) 98,94 %
20.08.2023 04:00 18,2 C 17,2 C 14,3 C 97 % 1021,5 hPa 0,0 l/m 0,00 h 0,00 h 0 W/m 0,0 km/h (0 Bft) 97,30 %
20.08.2023 05:00 17,9 C 16,9 C 13,9 C 97 % 1021,8 hPa 0,0 l/m 0,00 h 0,00 h 0 W/m 2,4 km/h (1 Bft) 96,79 %
20.08.2023 06:00 17,7 C 16,7 C 13,9 C 97 % 1021,8 hPa 0,0 l/m 0,00 h 0,00 h 8 W/m 1,3 km/h (1 Bft) 98,78 %
20.08.2023 07:00 17,7 C 17,0 C 14,0 C 98 % 1022,1 hPa 0,0 l/m 0,00 h 0,00 h 28 W/m 0,5 km/h (0 Bft) 97,31 %
20.08.2023 08:00 18,4 C 18,7 C 15,2 C 98 % 1022,4 hPa 0,0 l/m 0,27 h 0,00 h 108 W/m 1,7 km/h (1 Bft) 97,87 %
20.08.2023 09:00 20,4 C 25,6 C 17,0 C 98 % 1022,5 hPa 0,0 l/m 0,90 h 0,00 h 322 W/m 0,7 km/h (0 Bft) 97,34 %
20.08.2023 10:00 22,9 C 24,0 C 18,4 C 90 % 1022,5 hPa 0,0 l/m 0,67 h 0,00 h 413 W/m 2,9 km/h (1 Bft) 96,78 %
20.08.2023 11:00 24,9 C 27,2 C 20,3 C 81 % 1022,7 hPa 0,0 l/m 0,90 h 0,00 h 656 W/m 7,3 km/h (2 Bft) 97,79 %
20.08.2023 12:00 26,2 C 27,9 C 21,4 C 75 % 1022,8 hPa 0,0 l/m 0,50 h 0,00 h 521 W/m 7,4 km/h (2 Bft) 99,56 %
20.08.2023 13:00 26,5 C 26,3 C 21,3 C 74 % 1022,8 hPa 0,0 l/m 0,40 h 0,00 h 413 W/m 9,4 km/h (2 Bft) 94,92 %
20.08.2023 14:00 27,1 C 30,1 C 21,9 C 71 % 1022,5 hPa 0,0 l/m 0,57 h 0,00 h 490 W/m 12,3 km/h (3 Bft) 99,28 %
20.08.2023 15:00 27,1 C 28,4 C 21,4 C 68 % 1022,2 hPa 0,0 l/m 0,47 h 0,00 h 415 W/m 7,0 km/h (2 Bft) 98,07 %
20.08.2023 16:00 28,1 C 28,7 C 22,2 C 64 % 1022,1 hPa 0,0 l/m 0,92 h 0,00 h 595 W/m 8,0 km/h (2 Bft) 96,04 %
20.08.2023 17:00 29,0 C 31,8 C 23,3 C 60 % 1021,9 hPa 0,0 l/m 1,00 h 0,00 h 495 W/m 8,0 km/h (2 Bft) 98,97 %
20.08.2023 18:00 28,4 C 29,3 C 22,9 C 61 % 1021,9 hPa 0,0 l/m 0,63 h 0,00 h 221 W/m 6,5 km/h (2 Bft) 98,26 %
20.08.2023 19:00 26,3 C 25,3 C 21,1 C 66 % 1021,7 hPa 0,0 l/m 0,00 h 0,00 h 38 W/m 4,6 km/h (1 Bft) 95,99 %
20.08.2023 20:00 24,8 C 23,3 C 19,4 C 68 % 1021,8 hPa 0,0 l/m 0,00 h 0,00 h 13 W/m 1,9 km/h (1 Bft) 98,50 %
20.08.2023 21:00 23,3 C 21,6 C 18,0 C 72 % 1022,3 hPa 0,0 l/m 0,00 h 0,00 h 0 W/m 0,9 km/h (0 Bft) 98,01 %
20.08.2023 22:00 22,1 C 20,0 C 16,8 C 78 % 1022,7 hPa 0,0 l/m 0,00 h 0,00 h 0 W/m 0,1 km/h (0 Bft) 96,04 %
20.08.2023 23:00 20,7 C 18,8 C 15,7 C 85 % 1022,9 hPa 0,0 l/m 0,00 h 0,00 h 0 W/m 0,0 km/h (0 Bft) 99,57 %
Min-Datum _ 14.08.23 14.08.23 14.08.23 20.08.23 19.08.23 - - - - 14.08.23 14.08.23
_ Min-Zeit 05:50 05:20 04:55 17:50 05:32 - - - - 00:00 03:10
Minimum _ 14,6 C 13,3 C 10,6 C 58 % 1012,3 hPa - - - - 0,0 km/h (0 Bft) 77,19 %
Max-Datum _ 18.08.23 18.08.23 14.08.23 17.08.23 20.08.23 17.08.23 14.08.23 17.08.23 20.08.23 14.08.23 14.08.23
_ Max-Zeit 17:28 14:32 12:28 04:14 13:22 02:06 08:50 00:08 14:38 17:38 00:00
Maximum _ 29,7 C 35,0 C 24,4 C 99 % 1023,0 hPa 8,0 l/m 0,08 h 0,07 h 910 W/m 25,7 km/h
S-SO (4 Bft)
100,00 %
Durchschnitt _ 21,9 C 21,9 C 17,4 C 86 % 1017,7 hPa #23,6 l/m #34:47 h #4:52 h 255 W/m 5,5 km/h (1 Bft) 97,63 %
© 2023 W. Hausmann